Laurel, MT

3:17 PM MDT on August 21, 2014 (GMT -0600)
NonFedAWOS LAURELMUNC MT US SUPERAWOS | Change Station
CLOSE
Current Station
Personal Weather Station
Location: Laurel, MT
Elevation: 3517 ft
Nearby Weather Stations

Elev 3517 ft 45.70 °N, 108.76 °W | Updated 1 hour ago

Light Rain
Light Rain Mist
64.0 °F
Feels Like 64.0 °F
N
7.0
Wind Variable Wind from NNW

Today
High -- | Low -- °F
--% Chance of Precip.
Yesterday
High -- | Low -- °F
Precip. -- in
6:22 AM 8:12 PM
Waning Crescent, 12% visible
Pressure 30.01 in
Visibility 5.0 miles
Clouds Mostly Cloudy 4400 ft
Mostly Cloudy 6000 ft
Overcast 7000 ft
Dew Point 57.0 °F
Humidity 77%
Rainfall -999.00 in
Snow Depth Not available.
UV 2 out of 12
Pollen 4.30 out of 12
Air Quality Not available.
Flu Activity Not available.
METAR KBIL 212053Z 02008KT 5SM -RA BR BKN044CB BKN060 OVC070 16/14 A3007 RMK AO2 SLP163 CB OHD MOV NE P0003 60003 T01610139 53004

More Conditions Fewer Conditions

Pressure 30.01 in
Visibility 5.0 miles
Clouds Mostly Cloudy 4400 ft
Mostly Cloudy 6000 ft
Overcast 7000 ft
Dew Point 57.0 °F
Humidity 77%
Rainfall -999.00 in
Snow Depth Not available.
UV 2 out of 12
Pollen 4.30 out of 12
Air Quality Not available.
Flu Activity Not available.
METAR KBIL 212053Z 02008KT 5SM -RA BR BKN044CB BKN060 OVC070 16/14 A3007 RMK AO2 SLP163 CB OHD MOV NE P0003 60003 T01610139 53004

More Conditions Fewer Conditions

10-Day Weather Forecast

Almanac

Astronomy

Aug. 21, 2014 Rise Set
Actual Time 6:22 AM MDT 8:12 PM MDT
Civil Twilight 5:50 AM MDT 8:44 PM MDT
Nautical Twilight 5:12 AM MDT 9:23 PM MDT
Astronomical Twilight 4:29 AM MDT 10:05 PM MDT
Moon 2:50 AM MDT 5:47 PM MDT
Length of Visible Light 14h 53m
Length of Day
13h 49m
Tomorrow will be 2m 58s shorter.
Waning Crescent, 12% of the Moon is Illuminated
Today
Waning Crescent
Aug 25
New
Sep 2
First Quarter
Sep 8
Full
Sep 15
Last Quarter

Today's Extremes

State Highs State Lows

Community

WunderPhotos

Upload Photos

1,746,019 photos uploaded!

WunderBlogs® & News

Nearby

Snow Depth

Station Depth Elevation
Cole Creek 1 in 7850 ft
Burnt Mountain 0 in 5880 ft
Placer Basin 0 in 8830 ft
White Mill 2 in 8700 ft
Northeast Entrance 0 in 7350 ft

Earthquake Activity

City Distance Mag. Time & Date
No recent earthquake activity has been reported nearby.
Minimum magnitude displayed is 2.5.

Coastal Water Temperatures

Place Temperature
No Stations Reporting

Nearby Weather Stations